sensor_id;sensor_type;location;lat;lon;timestamp;P1;durP1;ratioP1;P2;durP2;ratioP2
64403;SDS011;50726;54.912;-8.392;2022-10-16T00:01:22;1999.90;;;999.90;;
64403;SDS011;50726;54.912;-8.392;2022-10-16T00:03:50;1717.90;;;999.90;;
64403;SDS011;50726;54.912;-8.392;2022-10-16T00:06:17;1652.28;;;999.90;;
64403;SDS011;50726;54.912;-8.392;2022-10-16T00:08:45;1436.13;;;999.90;;
64403;SDS011;50726;54.912;-8.392;2022-10-16T00:11:19;1340.07;;;999.90;;
64403;SDS011;50726;54.912;-8.392;2022-10-16T00:13:50;1420.47;;;999.90;;
64403;SDS011;50726;54.912;-8.392;2022-10-16T00:16:19;1724.93;;;999.90;;
64403;SDS011;50726;54.912;-8.392;2022-10-16T00:18:45;1411.05;;;999.90;;
64403;SDS011;50726;54.912;-8.392;2022-10-16T00:21:22;1246.97;;;999.90;;
64403;SDS011;50726;54.912;-8.392;2022-10-16T00:23:53;1254.20;;;999.90;;
64403;SDS011;50726;54.912;-8.392;2022-10-16T00:26:22;1274.85;;;999.90;;
64403;SDS011;50726;54.912;-8.392;2022-10-16T00:28:48;1273.80;;;999.90;;
64403;SDS011;50726;54.912;-8.392;2022-10-16T00:31:15;1274.78;;;999.90;;
64403;SDS011;50726;54.912;-8.392;2022-10-16T00:33:42;1279.60;;;999.90;;
64403;SDS011;50726;54.912;-8.392;2022-10-16T00:36:09;1999.90;;;999.90;;
64403;SDS011;50726;54.912;-8.392;2022-10-16T00:38:37;1688.97;;;999.90;;
64403;SDS011;50726;54.912;-8.392;2022-10-16T00:41:03;1291.13;;;999.90;;
64403;SDS011;50726;54.912;-8.392;2022-10-16T00:43:43;1263.68;;;999.90;;
64403;SDS011;50726;54.912;-8.392;2022-10-16T00:46:16;1227.15;;;999.90;;
64403;SDS011;50726;54.912;-8.392;2022-10-16T00:48:49;1187.32;;;999.90;;
64403;SDS011;50726;54.912;-8.392;2022-10-16T00:51:26;1131.68;;;999.90;;
64403;SDS011;50726;54.912;-8.392;2022-10-16T00:53:56;1091.80;;;999.90;;
64403;SDS011;50726;54.912;-8.392;2022-10-16T00:56:22;1090.75;;;999.90;;
64403;SDS011;50726;54.912;-8.392;2022-10-16T00:58:48;1118.70;;;999.90;;
64403;SDS011;50726;54.912;-8.392;2022-10-16T01:01:13;1124.38;;;999.90;;
64403;SDS011;50726;54.912;-8.392;2022-10-16T01:03:39;1135.00;;;999.90;;
64403;SDS011;50726;54.912;-8.392;2022-10-16T01:12:09;1121.55;;;999.90;;
64403;SDS011;50726;54.912;-8.392;2022-10-16T01:15:02;1146.20;;;999.90;;
64403;SDS011;50726;54.912;-8.392;2022-10-16T01:17:57;1089.93;;;999.90;;
64403;SDS011;50726;54.912;-8.392;2022-10-16T01:20:31;1078.85;;;999.90;;
64403;SDS011;50726;54.912;-8.392;2022-10-16T01:28:34;1034.45;;;976.25;;
64403;SDS011;50726;54.912;-8.392;2022-10-16T01:31:06;1027.05;;;968.58;;
64403;SDS011;50726;54.912;-8.392;2022-10-16T01:33:38;1022.55;;;965.97;;
64403;SDS011;50726;54.912;-8.392;2022-10-16T01:36:13;938.13;;;887.55;;
64403;SDS011;50726;54.912;-8.392;2022-10-16T01:38:47;1006.67;;;951.58;;
64403;SDS011;50726;54.912;-8.392;2022-10-16T01:41:19;761.65;;;720.33;;
64403;SDS011;50726;54.912;-8.392;2022-10-16T01:43:53;834.35;;;789.60;;
64403;SDS011;50726;54.912;-8.392;2022-10-16T01:46:27;952.42;;;901.28;;
64403;SDS011;50726;54.912;-8.392;2022-10-16T01:48:53;1020.88;;;964.42;;
64403;SDS011;50726;54.912;-8.392;2022-10-16T01:51:20;1076.97;;;999.90;;
64403;SDS011;50726;54.912;-8.392;2022-10-16T01:53:50;1095.18;;;999.90;;
64403;SDS011;50726;54.912;-8.392;2022-10-16T01:56:19;1037.00;;;978.83;;
64403;SDS011;50726;54.912;-8.392;2022-10-16T01:58:49;1087.47;;;999.90;;
64403;SDS011;50726;54.912;-8.392;2022-10-16T02:01:20;1078.80;;;999.90;;
64403;SDS011;50726;54.912;-8.392;2022-10-16T02:03:49;1140.95;;;999.90;;
64403;SDS011;50726;54.912;-8.392;2022-10-16T02:06:19;1128.07;;;999.90;;
64403;SDS011;50726;54.912;-8.392;2022-10-16T02:08:45;1046.57;;;987.70;;
64403;SDS011;50726;54.912;-8.392;2022-10-16T02:11:11;1166.80;;;999.90;;
64403;SDS011;50726;54.912;-8.392;2022-10-16T02:16:04;1237.35;;;999.90;;
64403;SDS011;50726;54.912;-8.392;2022-10-16T02:18:30;1336.28;;;999.90;;
64403;SDS011;50726;54.912;-8.392;2022-10-16T02:21:04;1255.57;;;999.90;;
64403;SDS011;50726;54.912;-8.392;2022-10-16T02:23:51;1271.82;;;999.90;;
64403;SDS011;50726;54.912;-8.392;2022-10-16T02:26:29;1311.63;;;999.90;;
64403;SDS011;50726;54.912;-8.392;2022-10-16T02:29:01;1345.82;;;999.90;;
64403;SDS011;50726;54.912;-8.392;2022-10-16T02:31:32;1320.78;;;999.90;;
64403;SDS011;50726;54.912;-8.392;2022-10-16T02:34:03;1286.38;;;999.90;;
64403;SDS011;50726;54.912;-8.392;2022-10-16T02:36:31;1185.68;;;999.90;;
64403;SDS011;50726;54.912;-8.392;2022-10-16T02:39:00;1124.53;;;999.90;;
64403;SDS011;50726;54.912;-8.392;2022-10-16T02:41:26;1164.47;;;999.90;;
64403;SDS011;50726;54.912;-8.392;2022-10-16T02:43:53;1157.18;;;999.90;;
64403;SDS011;50726;54.912;-8.392;2022-10-16T02:46:20;1173.90;;;999.90;;
64403;SDS011;50726;54.912;-8.392;2022-10-16T02:48:46;1172.50;;;999.90;;
64403;SDS011;50726;54.912;-8.392;2022-10-16T02:51:12;1183.10;;;999.90;;
64403;SDS011;50726;54.912;-8.392;2022-10-16T02:53:38;1203.47;;;999.90;;
64403;SDS011;50726;54.912;-8.392;2022-10-16T02:56:03;1202.35;;;999.90;;
64403;SDS011;50726;54.912;-8.392;2022-10-16T02:58:29;1187.93;;;999.90;;
64403;SDS011;50726;54.912;-8.392;2022-10-16T03:00:55;1200.22;;;999.90;;
64403;SDS011;50726;54.912;-8.392;2022-10-16T03:03:21;1212.22;;;999.90;;
64403;SDS011;50726;54.912;-8.392;2022-10-16T03:05:47;1226.25;;;999.90;;
64403;SDS011;50726;54.912;-8.392;2022-10-16T03:08:13;1168.07;;;999.90;;
64403;SDS011;50726;54.912;-8.392;2022-10-16T03:10:39;1162.35;;;999.90;;
64403;SDS011;50726;54.912;-8.392;2022-10-16T03:13:05;1160.18;;;999.90;;
64403;SDS011;50726;54.912;-8.392;2022-10-16T03:15:30;1159.18;;;999.90;;
64403;SDS011;50726;54.912;-8.392;2022-10-16T03:17:59;1197.95;;;999.90;;
64403;SDS011;50726;54.912;-8.392;2022-10-16T03:20:25;1223.65;;;999.90;;
64403;SDS011;50726;54.912;-8.392;2022-10-16T03:22:51;1249.45;;;999.90;;
64403;SDS011;50726;54.912;-8.392;2022-10-16T03:25:17;1248.15;;;999.90;;
64403;SDS011;50726;54.912;-8.392;2022-10-16T03:27:42;1209.35;;;999.90;;
64403;SDS011;50726;54.912;-8.392;2022-10-16T03:30:08;1205.30;;;999.90;;
64403;SDS011;50726;54.912;-8.392;2022-10-16T03:32:34;1197.35;;;999.90;;
64403;SDS011;50726;54.912;-8.392;2022-10-16T03:35:00;1176.45;;;999.90;;
64403;SDS011;50726;54.912;-8.392;2022-10-16T03:37:25;1164.32;;;999.90;;
64403;SDS011;50726;54.912;-8.392;2022-10-16T03:39:51;1141.15;;;999.90;;
64403;SDS011;50726;54.912;-8.392;2022-10-16T03:42:17;1096.97;;;999.90;;
64403;SDS011;50726;54.912;-8.392;2022-10-16T03:44:43;1099.82;;;999.90;;
64403;SDS011;50726;54.912;-8.392;2022-10-16T03:47:08;1090.28;;;999.90;;
64403;SDS011;50726;54.912;-8.392;2022-10-16T03:49:34;982.97;;;927.83;;
64403;SDS011;50726;54.912;-8.392;2022-10-16T03:51:59;892.70;;;843.38;;
64403;SDS011;50726;54.912;-8.392;2022-10-16T03:54:25;856.78;;;809.95;;
64403;SDS011;50726;54.912;-8.392;2022-10-16T03:56:50;814.03;;;769.50;;
64403;SDS011;50726;54.912;-8.392;2022-10-16T03:59:16;725.58;;;685.90;;
64403;SDS011;50726;54.912;-8.392;2022-10-16T04:01:41;616.53;;;582.25;;
64403;SDS011;50726;54.912;-8.392;2022-10-16T04:04:07;690.08;;;651.50;;
64403;SDS011;50726;54.912;-8.392;2022-10-16T04:06:32;766.08;;;722.80;;
64403;SDS011;50726;54.912;-8.392;2022-10-16T04:08:58;707.15;;;668.78;;
64403;SDS011;50726;54.912;-8.392;2022-10-16T04:11:23;700.45;;;661.17;;
64403;SDS011;50726;54.912;-8.392;2022-10-16T04:13:49;757.35;;;715.58;;
64403;SDS011;50726;54.912;-8.392;2022-10-16T04:16:15;895.28;;;846.28;;
64403;SDS011;50726;54.912;-8.392;2022-10-16T04:18:41;869.28;;;821.50;;
64403;SDS011;50726;54.912;-8.392;2022-10-16T04:21:07;779.90;;;736.67;;
64403;SDS011;50726;54.912;-8.392;2022-10-16T04:23:33;766.05;;;724.05;;
64403;SDS011;50726;54.912;-8.392;2022-10-16T04:25:59;736.67;;;696.00;;
64403;SDS011;50726;54.912;-8.392;2022-10-16T04:28:25;606.70;;;572.38;;
64403;SDS011;50726;54.912;-8.392;2022-10-16T04:30:53;461.08;;;434.05;;
64403;SDS011;50726;54.912;-8.392;2022-10-16T04:33:19;596.95;;;563.05;;
64403;SDS011;50726;54.912;-8.392;2022-10-16T04:35:45;599.38;;;565.65;;
64403;SDS011;50726;54.912;-8.392;2022-10-16T04:38:10;625.92;;;591.95;;
64403;SDS011;50726;54.912;-8.392;2022-10-16T04:40:36;655.42;;;619.38;;
64403;SDS011;50726;54.912;-8.392;2022-10-16T04:43:05;628.80;;;594.33;;
64403;SDS011;50726;54.912;-8.392;2022-10-16T04:45:31;474.55;;;447.92;;
64403;SDS011;50726;54.912;-8.392;2022-10-16T04:47:59;560.33;;;529.03;;
64403;SDS011;50726;54.912;-8.392;2022-10-16T04:50:25;621.55;;;587.08;;
64403;SDS011;50726;54.912;-8.392;2022-10-16T04:52:51;661.85;;;625.25;;
64403;SDS011;50726;54.912;-8.392;2022-10-16T04:55:20;512.63;;;483.35;;
64403;SDS011;50726;54.912;-8.392;2022-10-16T04:57:45;604.78;;;571.05;;
64403;SDS011;50726;54.912;-8.392;2022-10-16T05:00:11;629.67;;;594.28;;
64403;SDS011;50726;54.912;-8.392;2022-10-16T05:02:37;608.80;;;574.42;;
64403;SDS011;50726;54.912;-8.392;2022-10-16T05:05:02;779.75;;;736.45;;
64403;SDS011;50726;54.912;-8.392;2022-10-16T05:07:28;791.60;;;748.60;;
64403;SDS011;50726;54.912;-8.392;2022-10-16T05:09:54;733.50;;;692.47;;
64403;SDS011;50726;54.912;-8.392;2022-10-16T05:12:20;761.50;;;719.63;;
64403;SDS011;50726;54.912;-8.392;2022-10-16T05:14:46;789.92;;;746.47;;
64403;SDS011;50726;54.912;-8.392;2022-10-16T05:17:11;821.25;;;775.47;;
64403;SDS011;50726;54.912;-8.392;2022-10-16T05:19:37;740.53;;;699.38;;
64403;SDS011;50726;54.912;-8.392;2022-10-16T05:22:02;843.25;;;797.03;;
64403;SDS011;50726;54.912;-8.392;2022-10-16T05:24:28;825.70;;;780.72;;
64403;SDS011;50726;54.912;-8.392;2022-10-16T05:26:53;744.65;;;703.22;;
64403;SDS011;50726;54.912;-8.392;2022-10-16T05:29:19;768.20;;;725.47;;
64403;SDS011;50726;54.912;-8.392;2022-10-16T05:31:45;762.05;;;718.90;;
64403;SDS011;50726;54.912;-8.392;2022-10-16T05:34:11;902.38;;;853.25;;
64403;SDS011;50726;54.912;-8.392;2022-10-16T05:36:36;896.13;;;847.03;;
64403;SDS011;50726;54.912;-8.392;2022-10-16T05:39:02;788.42;;;744.75;;
64403;SDS011;50726;54.912;-8.392;2022-10-16T05:41:28;869.63;;;821.53;;
64403;SDS011;50726;54.912;-8.392;2022-10-16T05:43:54;682.17;;;645.00;;
64403;SDS011;50726;54.912;-8.392;2022-10-16T05:46:19;622.85;;;588.63;;
64403;SDS011;50726;54.912;-8.392;2022-10-16T05:48:45;701.90;;;663.22;;
64403;SDS011;50726;54.912;-8.392;2022-10-16T05:51:12;750.15;;;709.05;;
64403;SDS011;50726;54.912;-8.392;2022-10-16T05:53:39;763.88;;;722.10;;
64403;SDS011;50726;54.912;-8.392;2022-10-16T05:56:06;711.05;;;672.13;;
64403;SDS011;50726;54.912;-8.392;2022-10-16T05:58:34;831.50;;;785.67;;
64403;SDS011;50726;54.912;-8.392;2022-10-16T06:01:03;906.55;;;856.95;;
64403;SDS011;50726;54.912;-8.392;2022-10-16T06:03:50;858.28;;;811.50;;
64403;SDS011;50726;54.912;-8.392;2022-10-16T06:06:17;826.63;;;781.22;;
64403;SDS011;50726;54.912;-8.392;2022-10-16T06:08:47;862.33;;;815.03;;
64403;SDS011;50726;54.912;-8.392;2022-10-16T06:11:14;830.75;;;785.17;;
64403;SDS011;50726;54.912;-8.392;2022-10-16T06:13:51;803.28;;;758.88;;
64403;SDS011;50726;54.912;-8.392;2022-10-16T06:16:18;742.17;;;701.75;;
64403;SDS011;50726;54.912;-8.392;2022-10-16T06:18:45;705.30;;;666.22;;
64403;SDS011;50726;54.912;-8.392;2022-10-16T06:21:12;679.85;;;642.50;;
64403;SDS011;50726;54.912;-8.392;2022-10-16T06:23:41;721.22;;;680.47;;
64403;SDS011;50726;54.912;-8.392;2022-10-16T06:26:08;748.67;;;706.67;;
64403;SDS011;50726;54.912;-8.392;2022-10-16T06:28:35;749.13;;;708.53;;
64403;SDS011;50726;54.912;-8.392;2022-10-16T06:31:02;704.83;;;666.50;;
64403;SDS011;50726;54.912;-8.392;2022-10-16T06:33:29;550.22;;;519.03;;
64403;SDS011;50726;54.912;-8.392;2022-10-16T06:35:59;568.53;;;537.20;;
64403;SDS011;50726;54.912;-8.392;2022-10-16T06:38:26;599.58;;;565.88;;
64403;SDS011;50726;54.912;-8.392;2022-10-16T06:40:53;543.92;;;513.45;;
64403;SDS011;50726;54.912;-8.392;2022-10-16T06:43:18;503.88;;;474.27;;
64403;SDS011;50726;54.912;-8.392;2022-10-16T06:45:50;420.45;;;395.92;;
64403;SDS011;50726;54.912;-8.392;2022-10-16T06:48:19;418.05;;;393.08;;
64403;SDS011;50726;54.912;-8.392;2022-10-16T06:51:08;422.25;;;397.63;;
64403;SDS011;50726;54.912;-8.392;2022-10-16T06:53:35;478.65;;;450.70;;
64403;SDS011;50726;54.912;-8.392;2022-10-16T06:58:38;328.27;;;310.10;;
64403;SDS011;50726;54.912;-8.392;2022-10-16T07:01:05;329.65;;;311.45;;
64403;SDS011;50726;54.912;-8.392;2022-10-16T07:03:31;376.52;;;355.27;;
64403;SDS011;50726;54.912;-8.392;2022-10-16T07:06:00;390.10;;;367.17;;
64403;SDS011;50726;54.912;-8.392;2022-10-16T07:08:30;362.83;;;342.20;;
64403;SDS011;50726;54.912;-8.392;2022-10-16T07:11:01;420.95;;;396.50;;
64403;SDS011;50726;54.912;-8.392;2022-10-16T07:13:29;397.70;;;374.48;;
64403;SDS011;50726;54.912;-8.392;2022-10-16T07:15:55;367.60;;;346.65;;
64403;SDS011;50726;54.912;-8.392;2022-10-16T07:18:20;376.77;;;353.95;;
64403;SDS011;50726;54.912;-8.392;2022-10-16T07:20:51;373.45;;;352.30;;
64403;SDS011;50726;54.912;-8.392;2022-10-16T07:23:16;382.80;;;361.02;;
64403;SDS011;50726;54.912;-8.392;2022-10-16T07:25:42;323.17;;;305.67;;
64403;SDS011;50726;54.912;-8.392;2022-10-16T07:28:08;301.88;;;285.48;;
64403;SDS011;50726;54.912;-8.392;2022-10-16T07:30:34;314.30;;;297.35;;
64403;SDS011;50726;54.912;-8.392;2022-10-16T07:33:02;333.63;;;315.33;;
64403;SDS011;50726;54.912;-8.392;2022-10-16T07:35:28;278.40;;;263.90;;
64403;SDS011;50726;54.912;-8.392;2022-10-16T07:37:54;298.27;;;282.13;;
64403;SDS011;50726;54.912;-8.392;2022-10-16T07:40:19;277.00;;;262.63;;
64403;SDS011;50726;54.912;-8.392;2022-10-16T07:42:45;307.45;;;290.33;;
64403;SDS011;50726;54.912;-8.392;2022-10-16T07:45:10;285.50;;;270.30;;
64403;SDS011;50726;54.912;-8.392;2022-10-16T07:47:36;311.73;;;294.80;;
64403;SDS011;50726;54.912;-8.392;2022-10-16T07:50:02;312.63;;;295.55;;
64403;SDS011;50726;54.912;-8.392;2022-10-16T07:52:27;351.48;;;331.45;;
64403;SDS011;50726;54.912;-8.392;2022-10-16T07:54:54;371.20;;;349.92;;
64403;SDS011;50726;54.912;-8.392;2022-10-16T07:57:20;380.17;;;358.17;;
64403;SDS011;50726;54.912;-8.392;2022-10-16T07:59:45;385.20;;;363.13;;
64403;SDS011;50726;54.912;-8.392;2022-10-16T08:02:11;334.23;;;315.70;;
64403;SDS011;50726;54.912;-8.392;2022-10-16T08:04:37;348.65;;;327.60;;
64403;SDS011;50726;54.912;-8.392;2022-10-16T08:07:03;369.02;;;347.95;;
64403;SDS011;50726;54.912;-8.392;2022-10-16T08:09:28;401.85;;;378.42;;
64403;SDS011;50726;54.912;-8.392;2022-10-16T08:11:54;421.15;;;395.45;;
64403;SDS011;50726;54.912;-8.392;2022-10-16T08:14:19;419.35;;;394.85;;
64403;SDS011;50726;54.912;-8.392;2022-10-16T08:16:45;420.30;;;394.88;;
64403;SDS011;50726;54.912;-8.392;2022-10-16T08:19:10;393.73;;;370.20;;
64403;SDS011;50726;54.912;-8.392;2022-10-16T08:21:36;371.95;;;349.70;;
64403;SDS011;50726;54.912;-8.392;2022-10-16T08:24:01;347.90;;;328.63;;
64403;SDS011;50726;54.912;-8.392;2022-10-16T08:26:27;395.20;;;372.05;;
64403;SDS011;50726;54.912;-8.392;2022-10-16T08:28:53;375.98;;;354.13;;
64403;SDS011;50726;54.912;-8.392;2022-10-16T08:31:19;353.45;;;332.80;;
64403;SDS011;50726;54.912;-8.392;2022-10-16T08:33:45;351.10;;;331.20;;
64403;SDS011;50726;54.912;-8.392;2022-10-16T08:36:12;322.20;;;304.63;;
64403;SDS011;50726;54.912;-8.392;2022-10-16T08:38:39;375.45;;;353.67;;
64403;SDS011;50726;54.912;-8.392;2022-10-16T08:44:24;381.08;;;359.15;;
64403;SDS011;50726;54.912;-8.392;2022-10-16T08:49:29;430.27;;;404.35;;
64403;SDS011;50726;54.912;-8.392;2022-10-16T08:51:55;400.15;;;376.92;;
64403;SDS011;50726;54.912;-8.392;2022-10-16T08:54:28;453.95;;;427.67;;
64403;SDS011;50726;54.912;-8.392;2022-10-16T08:57:13;446.17;;;420.00;;
64403;SDS011;50726;54.912;-8.392;2022-10-16T08:59:42;444.58;;;419.20;;
64403;SDS011;50726;54.912;-8.392;2022-10-16T09:02:22;432.92;;;406.90;;
64403;SDS011;50726;54.912;-8.392;2022-10-16T09:21:18;304.25;;;287.20;;
64403;SDS011;50726;54.912;-8.392;2022-10-16T09:23:48;311.40;;;294.23;;
64403;SDS011;50726;54.912;-8.392;2022-10-16T09:26:14;289.30;;;273.90;;
64403;SDS011;50726;54.912;-8.392;2022-10-16T09:28:43;239.70;;;226.73;;
64403;SDS011;50726;54.912;-8.392;2022-10-16T09:31:12;281.98;;;266.08;;
64403;SDS011;50726;54.912;-8.392;2022-10-16T09:33:41;319.17;;;301.30;;
64403;SDS011;50726;54.912;-8.392;2022-10-16T09:36:09;305.58;;;287.10;;
64403;SDS011;50726;54.912;-8.392;2022-10-16T09:38:37;285.02;;;268.92;;
64403;SDS011;50726;54.912;-8.392;2022-10-16T09:41:12;256.52;;;242.68;;
64403;SDS011;50726;54.912;-8.392;2022-10-16T09:44:04;295.17;;;278.83;;
64403;SDS011;50726;54.912;-8.392;2022-10-16T09:46:36;294.25;;;277.92;;
64403;SDS011;50726;54.912;-8.392;2022-10-16T09:49:18;269.27;;;254.88;;
64403;SDS011;50726;54.912;-8.392;2022-10-16T09:51:49;270.55;;;255.80;;
64403;SDS011;50726;54.912;-8.392;2022-10-16T09:54:19;268.30;;;253.13;;
64403;SDS011;50726;54.912;-8.392;2022-10-16T09:56:47;226.02;;;214.18;;
64403;SDS011;50726;54.912;-8.392;2022-10-16T10:01:50;396.58;;;370.75;;
64403;SDS011;50726;54.912;-8.392;2022-10-16T10:04:18;472.95;;;442.95;;
64403;SDS011;50726;54.912;-8.392;2022-10-16T10:06:49;508.88;;;476.98;;
64403;SDS011;50726;54.912;-8.392;2022-10-16T10:09:21;534.50;;;502.50;;
64403;SDS011;50726;54.912;-8.392;2022-10-16T10:19:36;602.30;;;566.13;;
64403;SDS011;50726;54.912;-8.392;2022-10-16T10:22:27;610.60;;;575.00;;
64403;SDS011;50726;54.912;-8.392;2022-10-16T10:27:30;634.40;;;597.28;;
64403;SDS011;50726;54.912;-8.392;2022-10-16T10:30:40;683.28;;;644.05;;
64403;SDS011;50726;54.912;-8.392;2022-10-16T10:38:46;669.13;;;631.97;;
64403;SDS011;50726;54.912;-8.392;2022-10-16T10:52:10;719.22;;;678.30;;
64403;SDS011;50726;54.912;-8.392;2022-10-16T10:54:58;703.13;;;662.72;;
64403;SDS011;50726;54.912;-8.392;2022-10-16T11:02:52;557.67;;;525.40;;
64403;SDS011;50726;54.912;-8.392;2022-10-16T11:05:45;582.78;;;547.78;;
64403;SDS011;50726;54.912;-8.392;2022-10-16T11:10:54;564.85;;;532.47;;
64403;SDS011;50726;54.912;-8.392;2022-10-16T11:21:39;545.58;;;514.55;;
64403;SDS011;50726;54.912;-8.392;2022-10-16T11:24:53;658.60;;;621.80;;
64403;SDS011;50726;54.912;-8.392;2022-10-16T11:27:23;590.90;;;556.58;;
64403;SDS011;50726;54.912;-8.392;2022-10-16T11:29:59;598.65;;;565.05;;
64403;SDS011;50726;54.912;-8.392;2022-10-16T11:32:33;592.60;;;559.00;;
64403;SDS011;50726;54.912;-8.392;2022-10-16T11:35:23;638.28;;;600.92;;
64403;SDS011;50726;54.912;-8.392;2022-10-16T11:37:57;619.78;;;584.42;;
64403;SDS011;50726;54.912;-8.392;2022-10-16T11:40:36;530.60;;;499.45;;
64403;SDS011;50726;54.912;-8.392;2022-10-16T11:43:12;542.78;;;510.48;;
64403;SDS011;50726;54.912;-8.392;2022-10-16T11:45:46;557.03;;;523.97;;
64403;SDS011;50726;54.912;-8.392;2022-10-16T11:51:33;546.63;;;514.97;;
64403;SDS011;50726;54.912;-8.392;2022-10-16T11:54:22;490.80;;;461.85;;
64403;SDS011;50726;54.912;-8.392;2022-10-16T11:57:19;451.40;;;424.55;;
64403;SDS011;50726;54.912;-8.392;2022-10-16T11:59:53;403.73;;;378.50;;
64403;SDS011;50726;54.912;-8.392;2022-10-16T12:08:13;403.40;;;377.42;;
64403;SDS011;50726;54.912;-8.392;2022-10-16T12:10:45;401.40;;;375.38;;
64403;SDS011;50726;54.912;-8.392;2022-10-16T12:16:05;348.52;;;327.13;;
64403;SDS011;50726;54.912;-8.392;2022-10-16T12:18:31;378.10;;;354.48;;
64403;SDS011;50726;54.912;-8.392;2022-10-16T12:20:57;371.92;;;348.98;;
64403;SDS011;50726;54.912;-8.392;2022-10-16T12:23:29;345.95;;;324.50;;
64403;SDS011;50726;54.912;-8.392;2022-10-16T12:25:55;350.75;;;329.58;;
64403;SDS011;50726;54.912;-8.392;2022-10-16T12:28:27;362.30;;;339.73;;
64403;SDS011;50726;54.912;-8.392;2022-10-16T12:30:55;312.05;;;293.90;;
64403;SDS011;50726;54.912;-8.392;2022-10-16T12:33:36;326.00;;;306.27;;
64403;SDS011;50726;54.912;-8.392;2022-10-16T12:36:26;358.73;;;336.80;;
64403;SDS011;50726;54.912;-8.392;2022-10-16T12:38:58;377.48;;;354.00;;
64403;SDS011;50726;54.912;-8.392;2022-10-16T12:41:30;374.05;;;351.27;;
64403;SDS011;50726;54.912;-8.392;2022-10-16T12:43:57;375.33;;;352.42;;
64403;SDS011;50726;54.912;-8.392;2022-10-16T12:49:20;420.98;;;394.80;;
64403;SDS011;50726;54.912;-8.392;2022-10-16T12:51:52;427.45;;;400.67;;
64403;SDS011;50726;54.912;-8.392;2022-10-16T12:54:29;441.35;;;414.60;;
64403;SDS011;50726;54.912;-8.392;2022-10-16T12:57:06;488.48;;;458.95;;
64403;SDS011;50726;54.912;-8.392;2022-10-16T13:11:19;398.08;;;373.73;;
64403;SDS011;50726;54.912;-8.392;2022-10-16T13:13:56;397.60;;;372.83;;
64403;SDS011;50726;54.912;-8.392;2022-10-16T13:25:16;377.50;;;354.67;;
64403;SDS011;50726;54.912;-8.392;2022-10-16T13:27:49;387.35;;;363.55;;
64403;SDS011;50726;54.912;-8.392;2022-10-16T13:30:34;399.00;;;374.35;;
64403;SDS011;50726;54.912;-8.392;2022-10-16T13:33:35;414.73;;;389.63;;
64403;SDS011;50726;54.912;-8.392;2022-10-16T13:36:03;401.10;;;376.70;;
64403;SDS011;50726;54.912;-8.392;2022-10-16T13:38:31;411.50;;;386.50;;
64403;SDS011;50726;54.912;-8.392;2022-10-16T13:41:01;433.33;;;406.83;;
64403;SDS011;50726;54.912;-8.392;2022-10-16T13:43:45;446.48;;;419.67;;
64403;SDS011;50726;54.912;-8.392;2022-10-16T13:46:15;459.10;;;431.73;;
64403;SDS011;50726;54.912;-8.392;2022-10-16T13:49:32;482.02;;;452.60;;
64403;SDS011;50726;54.912;-8.392;2022-10-16T13:51:41;506.48;;;476.27;;
64403;SDS011;50726;54.912;-8.392;2022-10-16T13:54:12;500.00;;;470.77;;
64403;SDS011;50726;54.912;-8.392;2022-10-16T13:56:39;492.50;;;463.15;;
64403;SDS011;50726;54.912;-8.392;2022-10-16T13:59:06;515.00;;;485.05;;
64403;SDS011;50726;54.912;-8.392;2022-10-16T14:01:52;469.23;;;441.05;;
64403;SDS011;50726;54.912;-8.392;2022-10-16T14:04:22;506.67;;;476.95;;
64403;SDS011;50726;54.912;-8.392;2022-10-16T14:06:52;496.25;;;467.20;;
64403;SDS011;50726;54.912;-8.392;2022-10-16T14:09:30;485.73;;;456.85;;
64403;SDS011;50726;54.912;-8.392;2022-10-16T14:12:03;476.65;;;448.33;;
64403;SDS011;50726;54.912;-8.392;2022-10-16T14:14:44;440.13;;;413.27;;
64403;SDS011;50726;54.912;-8.392;2022-10-16T14:17:19;508.60;;;478.50;;
64403;SDS011;50726;54.912;-8.392;2022-10-16T14:19:48;483.08;;;454.15;;
64403;SDS011;50726;54.912;-8.392;2022-10-16T14:22:30;471.58;;;442.45;;
64403;SDS011;50726;54.912;-8.392;2022-10-16T14:28:02;493.80;;;464.58;;
64403;SDS011;50726;54.912;-8.392;2022-10-16T14:30:48;470.17;;;441.45;;
64403;SDS011;50726;54.912;-8.392;2022-10-16T14:33:23;429.77;;;403.30;;
64403;SDS011;50726;54.912;-8.392;2022-10-16T14:36:05;420.27;;;394.25;;
64403;SDS011;50726;54.912;-8.392;2022-10-16T14:38:38;418.90;;;393.17;;
64403;SDS011;50726;54.912;-8.392;2022-10-16T14:41:05;444.92;;;417.23;;
64403;SDS011;50726;54.912;-8.392;2022-10-16T14:45:59;384.88;;;360.95;;
64403;SDS011;50726;54.912;-8.392;2022-10-16T14:50:56;368.65;;;346.50;;
64403;SDS011;50726;54.912;-8.392;2022-10-16T14:53:22;385.05;;;361.60;;
64403;SDS011;50726;54.912;-8.392;2022-10-16T14:55:48;385.98;;;361.83;;
64403;SDS011;50726;54.912;-8.392;2022-10-16T15:00:46;443.73;;;417.00;;
64403;SDS011;50726;54.912;-8.392;2022-10-16T15:03:13;472.45;;;443.70;;
64403;SDS011;50726;54.912;-8.392;2022-10-16T15:05:39;420.27;;;394.45;;
64403;SDS011;50726;54.912;-8.392;2022-10-16T15:08:05;422.67;;;396.25;;
64403;SDS011;50726;54.912;-8.392;2022-10-16T15:10:33;423.35;;;397.60;;
64403;SDS011;50726;54.912;-8.392;2022-10-16T15:13:04;425.08;;;399.08;;
64403;SDS011;50726;54.912;-8.392;2022-10-16T15:18:11;453.58;;;425.85;;
64403;SDS011;50726;54.912;-8.392;2022-10-16T15:20:39;427.92;;;401.80;;
64403;SDS011;50726;54.912;-8.392;2022-10-16T15:23:10;419.00;;;392.70;;
64403;SDS011;50726;54.912;-8.392;2022-10-16T15:25:44;455.17;;;427.38;;
64403;SDS011;50726;54.912;-8.392;2022-10-16T15:28:12;545.47;;;513.95;;
64403;SDS011;50726;54.912;-8.392;2022-10-16T15:30:41;573.38;;;540.42;;
64403;SDS011;50726;54.912;-8.392;2022-10-16T15:33:18;586.10;;;552.45;;
64403;SDS011;50726;54.912;-8.392;2022-10-16T15:35:53;609.70;;;575.20;;
64403;SDS011;50726;54.912;-8.392;2022-10-16T15:38:20;567.50;;;535.45;;
64403;SDS011;50726;54.912;-8.392;2022-10-16T15:40:47;617.88;;;582.70;;
64403;SDS011;50726;54.912;-8.392;2022-10-16T15:43:14;641.95;;;606.40;;
64403;SDS011;50726;54.912;-8.392;2022-10-16T15:45:40;594.67;;;561.00;;
64403;SDS011;50726;54.912;-8.392;2022-10-16T15:48:08;558.58;;;526.90;;
64403;SDS011;50726;54.912;-8.392;2022-10-16T15:50:38;627.10;;;591.80;;
64403;SDS011;50726;54.912;-8.392;2022-10-16T15:53:05;706.08;;;667.08;;
64403;SDS011;50726;54.912;-8.392;2022-10-16T15:55:33;945.13;;;894.08;;
64403;SDS011;50726;54.912;-8.392;2022-10-16T15:57:59;983.92;;;931.17;;
64403;SDS011;50726;54.912;-8.392;2022-10-16T16:00:24;875.53;;;828.78;;
64403;SDS011;50726;54.912;-8.392;2022-10-16T16:02:52;853.42;;;807.35;;
64403;SDS011;50726;54.912;-8.392;2022-10-16T16:05:19;878.30;;;830.60;;
64403;SDS011;50726;54.912;-8.392;2022-10-16T16:07:46;805.63;;;760.83;;
64403;SDS011;50726;54.912;-8.392;2022-10-16T16:10:12;761.17;;;719.63;;